Time;durP1;ratioP1;P1;durP2;ratioP2;P2;SDS_P1;SDS_P2;PMS_P1;PMS_P2;Temp;Humidity;BMP_temperature;BMP_pressure;BME280_temperature;BME280_humidity;BME280_pressure;Samples;Min_cycle;Max_cycle;Signal;HPM_P1;HPM_P2
2022/12/22 03:25:54;;;;;;;;;;;17.40;59.20;;;;;;5061616;28;747;-68
2022/12/22 03:28:24;;;;;;;;;;;17.40;59.20;;;;;;5062615;28;890;-68
2022/12/22 03:31:15;;;;;;;;;;;17.40;59.20;;;;;;5070705;28;1307;-68
2022/12/22 03:33:41;;;;;;;;;;;17.40;59.20;;;;;;5064543;28;1951;-68
2022/12/22 03:36:06;;;;;;;;;;;17.40;59.30;;;;;;5064598;28;895;-68
2022/12/22 03:38:32;;;;;;;;;;;17.40;59.20;;;;;;5066406;28;830;-68
2022/12/22 03:40:58;;;;;;;;;;;17.40;59.30;;;;;;5061870;28;1284;-68
2022/12/22 03:46:29;;;;;;;;;;;17.40;59.30;;;;;;5059258;28;822;-68
2022/12/22 03:49:10;;;;;;;;;;;17.40;59.30;;;;;;5060315;28;774;-68
2022/12/22 03:51:45;;;;;;;;;;;17.40;59.30;;;;;;5060758;28;1302;-68
2022/12/22 03:54:12;;;;;;;;;;;17.40;59.30;;;;;;5062483;28;926;-68
2022/12/22 03:56:37;;;;;;;;;;;17.40;59.30;;;;;;5057470;28;1267;-67
2022/12/22 03:59:03;;;;;;;;;;;17.40;59.30;;;;;;5061067;28;1329;-68
2022/12/22 04:01:28;;;;;;;;;;;17.40;59.30;;;;;;5059462;28;1302;-67
2022/12/22 04:03:54;;;;;;;;;;;17.40;59.30;;;;;;5064277;28;1500;-67
2022/12/22 04:06:19;;;;;;;;;;;17.40;59.30;;;;;;5060908;28;1508;-68
2022/12/22 04:08:45;;;;;;;;;;;17.40;59.30;;;;;;5060828;28;1439;-68
2022/12/22 04:13:55;;;;;;;;;;;17.40;59.30;;;;;;5065128;28;1963;-67
2022/12/22 04:16:20;;;;;;;;;;;17.40;59.30;;;;;;5062247;28;1445;-69
2022/12/22 04:18:45;;;;;;;;;;;17.40;59.30;;;;;;5073782;28;1048;-70
2022/12/22 04:21:11;;;;;;;;;;;17.40;59.30;;;;;;5064113;28;1394;-69
2022/12/22 04:23:36;;;;;;;;;;;17.40;59.30;;;;;;5060922;28;1634;-70
2022/12/22 04:26:02;;;;;;;;;;;17.40;59.30;;;;;;5062079;28;1390;-70
2022/12/22 04:28:27;;;;;;;;;;;17.40;59.30;;;;;;5058946;28;1279;-70
2022/12/22 04:30:53;;;;;;;;;;;17.40;59.40;;;;;;5059100;28;1370;-69
2022/12/22 04:33:18;;;;;;;;;;;17.40;59.30;;;;;;5058656;28;1902;-70
2022/12/22 04:35:44;;;;;;;;;;;17.40;59.40;;;;;;5058179;28;1422;-69
2022/12/22 04:38:09;;;;;;;;;;;17.40;59.30;;;;;;5061075;28;1066;-69
2022/12/22 04:40:34;;;;;;;;;;;17.40;59.30;;;;;;5061803;28;1355;-69
2022/12/22 04:43:00;;;;;;;;;;;17.40;59.40;;;;;;5058779;28;951;-69
2022/12/22 04:45:25;;;;;;;;;;;17.40;59.40;;;;;;5063215;28;888;-69
2022/12/22 04:47:51;;;;;;;;;;;17.40;59.40;;;;;;5062575;28;1038;-69
2022/12/22 04:50:16;;;;;;;;;;;17.40;59.40;;;;;;5062549;28;1575;-69
2022/12/22 04:52:42;;;;;;;;;;;17.40;59.30;;;;;;5065217;28;1945;-69
2022/12/22 04:55:08;;;;;;;;;;;17.40;59.40;;;;;;5060454;28;887;-70
2022/12/22 04:57:33;;;;;;;;;;;17.40;59.40;;;;;;5060118;28;1202;-68
2022/12/22 04:59:59;;;;;;;;;;;17.40;59.40;;;;;;5061487;28;863;-69
2022/12/22 05:02:24;;;;;;;;;;;17.40;59.40;;;;;;5061493;28;1357;-68
2022/12/22 05:04:50;;;;;;;;;;;17.40;59.40;;;;;;5063675;28;1219;-68
2022/12/22 05:07:15;;;;;;;;;;;17.40;59.40;;;;;;5060161;28;982;-68
2022/12/22 05:09:40;;;;;;;;;;;17.40;59.40;;;;;;5061632;28;844;-69
2022/12/22 05:12:53;;;;;;;;;;;17.40;59.40;;;;;;5061264;28;1894;-68
2022/12/22 05:14:51;;;;;;;;;;;17.40;59.40;;;;;;5060375;28;1276;-69
2022/12/22 05:17:17;;;;;;;;;;;17.40;59.30;;;;;;5058987;28;906;-68
2022/12/22 05:19:42;;;;;;;;;;;17.40;59.30;;;;;;5058899;28;878;-68
2022/12/22 05:22:08;;;;;;;;;;;17.40;59.20;;;;;;5059545;28;1307;-67
2022/12/22 05:24:33;;;;;;;;;;;17.40;59.20;;;;;;5061897;28;871;-68
2022/12/22 05:26:59;;;;;;;;;;;17.50;59.80;;;;;;5063762;28;939;-67
2022/12/22 05:29:24;;;;;;;;;;;17.50;59.10;;;;;;5060969;28;874;-69
2022/12/22 05:31:50;;;;;;;;;;;17.50;59.00;;;;;;5057518;28;1890;-67
2022/12/22 05:34:15;;;;;;;;;;;17.60;59.00;;;;;;5060919;28;1751;-68
2022/12/22 05:36:41;;;;;;;;;;;17.60;58.90;;;;;;5061127;28;1288;-69
2022/12/22 05:39:06;;;;;;;;;;;17.60;58.90;;;;;;5063872;28;791;-69
2022/12/22 05:41:32;;;;;;;;;;;17.60;58.80;;;;;;5062324;28;1298;-69
2022/12/22 05:43:57;;;;;;;;;;;17.60;58.80;;;;;;5058359;28;934;-69
2022/12/22 05:46:22;;;;;;;;;;;17.60;58.70;;;;;;5058078;28;1428;-67
2022/12/22 05:48:48;;;;;;;;;;;17.70;58.70;;;;;;5059383;28;884;-67
2022/12/22 05:51:13;;;;;;;;;;;17.70;58.60;;;;;;5062962;28;1255;-68
2022/12/22 05:53:39;;;;;;;;;;;17.70;58.60;;;;;;5060699;28;1959;-68
2022/12/22 05:56:05;;;;;;;;;;;17.70;58.60;;;;;;5060397;28;872;-68
2022/12/22 05:58:31;;;;;;;;;;;17.70;58.50;;;;;;5060059;28;774;-68
2022/12/22 06:00:57;;;;;;;;;;;17.70;58.50;;;;;;5058676;28;1247;-69
2022/12/22 06:03:23;;;;;;;;;;;17.70;58.50;;;;;;5061727;28;1294;-70
2022/12/22 06:05:49;;;;;;;;;;;17.70;58.40;;;;;;5066554;28;1601;-69
2022/12/22 06:08:14;;;;;;;;;;;17.70;58.40;;;;;;5063880;28;899;-68
2022/12/22 06:10:40;;;;;;;;;;;17.70;58.40;;;;;;5062415;28;1370;-71
2022/12/22 06:13:05;;;;;;;;;;;17.80;58.40;;;;;;5062710;28;1910;-71
2022/12/22 06:15:31;;;;;;;;;;;17.80;58.40;;;;;;5061824;28;1256;-70
2022/12/22 06:17:56;;;;;;;;;;;17.80;58.40;;;;;;5062490;28;930;-68
2022/12/22 06:20:22;;;;;;;;;;;17.80;58.40;;;;;;5062308;28;1045;-68
2022/12/22 06:22:47;;;;;;;;;;;17.80;58.30;;;;;;5061897;28;1304;-68
2022/12/22 06:25:12;;;;;;;;;;;17.80;58.30;;;;;;5061480;28;798;-69
2022/12/22 06:27:38;;;;;;;;;;;17.80;58.30;;;;;;5060656;28;920;-68
2022/12/22 06:30:04;;;;;;;;;;;17.80;58.90;;;;;;5056941;28;926;-69
2022/12/22 06:32:29;;;;;;;;;;;17.80;58.20;;;;;;5061361;28;1934;-69
2022/12/22 06:34:54;;;;;;;;;;;17.80;58.30;;;;;;5060603;28;839;-69
2022/12/22 06:37:20;;;;;;;;;;;17.80;58.20;;;;;;5055627;28;828;-70
2022/12/22 06:39:45;;;;;;;;;;;17.80;58.30;;;;;;5061820;28;1360;-68
2022/12/22 06:44:55;;;;;;;;;;;17.80;58.20;;;;;;5058259;28;791;-70
2022/12/22 06:47:20;;;;;;;;;;;17.90;58.20;;;;;;5059930;28;813;-71
2022/12/22 06:49:46;;;;;;;;;;;17.80;58.20;;;;;;5064431;28;821;-71
2022/12/22 06:52:11;;;;;;;;;;;17.80;58.20;;;;;;5059918;28;1965;-70
2022/12/22 06:54:37;;;;;;;;;;;17.80;58.20;;;;;;5058352;28;883;-71
2022/12/22 06:57:02;;;;;;;;;;;17.90;58.20;;;;;;5061062;28;902;-72
2022/12/22 06:59:28;;;;;;;;;;;17.90;58.20;;;;;;5062966;28;928;-71
2022/12/22 07:01:53;;;;;;;;;;;17.90;58.20;;;;;;5063216;28;1259;-70
2022/12/22 07:04:20;;;;;;;;;;;17.90;58.20;;;;;;5066696;28;1363;-71
2022/12/22 07:06:46;;;;;;;;;;;17.90;58.20;;;;;;5064726;28;823;-71
2022/12/22 07:09:11;;;;;;;;;;;17.90;58.20;;;;;;5063744;28;973;-70
2022/12/22 07:11:37;;;;;;;;;;;17.90;58.20;;;;;;5065310;28;1704;-69
2022/12/22 07:14:02;;;;;;;;;;;17.90;58.20;;;;;;5063838;28;1914;-69
2022/12/22 07:16:27;;;;;;;;;;;17.90;58.20;;;;;;5065128;28;1363;-69
2022/12/22 07:18:53;;;;;;;;;;;17.90;58.20;;;;;;5063021;28;895;-70
2022/12/22 07:21:18;;;;;;;;;;;17.90;58.10;;;;;;5064904;28;1237;-68
2022/12/22 07:23:44;;;;;;;;;;;17.90;58.10;;;;;;5065527;28;886;-69
2022/12/22 07:26:09;;;;;;;;;;;17.90;58.20;;;;;;5063985;28;809;-69
2022/12/22 07:28:35;;;;;;;;;;;17.90;58.20;;;;;;5069444;28;842;-69
2022/12/22 07:31:01;;;;;;;;;;;17.90;58.10;;;;;;5062288;28;1312;-69
2022/12/22 07:33:26;;;;;;;;;;;17.90;58.20;;;;;;5064678;28;1906;-67
2022/12/22 07:36:09;;;;;;;;;;;17.90;58.20;;;;;;5064739;28;886;-67
2022/12/22 07:38:38;;;;;;;;;;;17.90;58.20;;;;;;5063034;28;1296;-67
2022/12/22 07:42:43;;;;;;;;;;;17.90;58.20;;;;;;5066152;28;1221;-68
2022/12/22 07:43:49;;;;;;;;;;;17.90;58.20;;;;;;5066197;28;984;-68
2022/12/22 07:46:15;;;;;;;;;;;17.90;58.20;;;;;;5062506;28;926;-68
2022/12/22 07:51:24;;;;;;;;;;;17.90;58.20;;;;;;5064291;28;1243;-68
2022/12/22 07:53:50;;;;;;;;;;;17.90;58.20;;;;;;5066034;28;1906;-68
2022/12/22 07:56:15;;;;;;;;;;;17.90;58.20;;;;;;5061628;28;808;-70
2022/12/22 07:58:41;;;;;;;;;;;17.90;58.20;;;;;;5064199;28;926;-68
2022/12/22 08:01:06;;;;;;;;;;;17.90;58.20;;;;;;5064738;28;1231;-68
2022/12/22 08:03:32;;;;;;;;;;;17.90;58.20;;;;;;5062045;28;1320;-68
2022/12/22 08:05:57;;;;;;;;;;;17.90;58.20;;;;;;5066553;28;1070;-68
2022/12/22 08:08:22;;;;;;;;;;;17.90;58.20;;;;;;5064816;28;793;-68
2022/12/22 08:10:48;;;;;;;;;;;17.90;58.20;;;;;;5065859;28;1364;-68
2022/12/22 08:13:13;;;;;;;;;;;17.90;58.20;;;;;;5062155;28;1969;-68
2022/12/22 08:15:39;;;;;;;;;;;17.90;58.20;;;;;;5059690;28;1628;-68
2022/12/22 08:18:04;;;;;;;;;;;17.90;58.20;;;;;;5060735;28;816;-68
2022/12/22 08:20:30;;;;;;;;;;;17.90;58.20;;;;;;5060780;28;1326;-68
2022/12/22 08:22:55;;;;;;;;;;;17.90;58.20;;;;;;5061065;28;1025;-69
2022/12/22 08:25:21;;;;;;;;;;;17.90;58.20;;;;;;5062141;28;793;-69
2022/12/22 08:27:47;;;;;;;;;;;17.90;58.20;;;;;;5063056;28;866;-69
2022/12/22 08:30:13;;;;;;;;;;;17.90;58.20;;;;;;5060867;28;890;-69
2022/12/22 08:32:38;;;;;;;;;;;17.90;58.20;;;;;;5061818;28;1902;-69
2022/12/22 08:35:04;;;;;;;;;;;17.90;58.20;;;;;;5063567;28;851;-71
2022/12/22 08:37:32;;;;;;;;;;;17.90;58.20;;;;;;5059375;28;1321;-67
2022/12/22 08:39:57;;;;;;;;;;;17.90;58.20;;;;;;5069881;28;938;-68
2022/12/22 08:42:23;;;;;;;;;;;17.90;58.20;;;;;;5057828;28;1361;-68
2022/12/22 08:44:52;;;;;;;;;;;17.90;58.20;;;;;;5064174;28;1326;-68
2022/12/22 08:47:20;;;;;;;;;;;17.90;58.30;;;;;;5060191;28;832;-67
2022/12/22 08:49:46;;;;;;;;;;;17.90;58.20;;;;;;5061149;28;902;-67
2022/12/22 08:52:11;;;;;;;;;;;17.90;58.20;;;;;;5060998;28;1906;-68
2022/12/22 08:54:37;;;;;;;;;;;17.90;58.20;;;;;;5060401;28;1084;-68
2022/12/22 08:57:02;;;;;;;;;;;17.90;58.20;;;;;;5058250;28;843;-68
2022/12/22 08:59:28;;;;;;;;;;;17.90;58.20;;;;;;5063367;28;899;-68
2022/12/22 09:01:53;;;;;;;;;;;17.90;58.20;;;;;;5064674;28;1233;-68
2022/12/22 09:04:19;;;;;;;;;;;17.90;58.30;;;;;;5057395;28;954;-68
2022/12/22 09:06:45;;;;;;;;;;;17.90;58.20;;;;;;5059378;28;870;-68
2022/12/22 09:09:11;;;;;;;;;;;17.90;58.20;;;;;;5063524;28;1381;-68
2022/12/22 09:11:37;;;;;;;;;;;17.90;58.20;;;;;;5063761;28;1243;-68
2022/12/22 09:14:02;;;;;;;;;;;17.90;58.20;;;;;;5064002;28;1906;-68
2022/12/22 09:16:28;;;;;;;;;;;17.90;58.20;;;;;;5061346;28;901;-68
2022/12/22 09:18:54;;;;;;;;;;;17.90;58.20;;;;;;5060724;28;928;-68
2022/12/22 09:21:20;;;;;;;;;;;17.90;58.20;;;;;;5058181;28;1327;-68
2022/12/22 09:23:46;;;;;;;;;;;17.90;58.20;;;;;;5061408;28;811;-68
2022/12/22 09:26:12;;;;;;;;;;;17.90;58.20;;;;;;5064115;28;824;-68
2022/12/22 09:28:38;;;;;;;;;;;17.90;58.20;;;;;;5061503;28;1282;-68
2022/12/22 09:31:03;;;;;;;;;;;17.90;58.20;;;;;;5061588;28;1231;-68
2022/12/22 09:33:29;;;;;;;;;;;17.90;58.20;;;;;;5067062;28;1894;-68
2022/12/22 09:35:54;;;;;;;;;;;17.90;58.20;;;;;;5061409;28;839;-68
2022/12/22 09:38:20;;;;;;;;;;;17.90;58.20;;;;;;5061634;28;857;-68
2022/12/22 09:40:45;;;;;;;;;;;17.90;58.10;;;;;;5060196;28;1302;-67
2022/12/22 09:43:12;;;;;;;;;;;17.90;58.20;;;;;;5061156;28;1030;-68
2022/12/22 09:45:37;;;;;;;;;;;17.90;58.10;;;;;;5059486;28;892;-68
2022/12/22 09:48:03;;;;;;;;;;;17.90;58.10;;;;;;5062200;28;883;-69
2022/12/22 09:50:37;;;;;;;;;;;18.00;58.20;;;;;;5076569;28;1235;-70
2022/12/22 09:53:03;;;;;;;;;;;17.90;58.10;;;;;;5060813;28;1949;-68
2022/12/22 09:55:37;;;;;;;;;;;17.90;58.10;;;;;;5057733;28;895;-68
2022/12/22 09:58:02;;;;;;;;;;;17.90;58.10;;;;;;5059382;28;867;-68
2022/12/22 10:00:28;;;;;;;;;;;17.90;58.10;;;;;;5060195;28;1367;-68
2022/12/22 10:02:53;;;;;;;;;;;17.90;58.10;;;;;;5061301;28;1286;-68
2022/12/22 10:05:27;;;;;;;;;;;17.90;58.10;;;;;;5061457;28;1364;-66
2022/12/22 10:07:52;;;;;;;;;;;17.90;58.10;;;;;;5057948;28;879;-66
2022/12/22 10:10:18;;;;;;;;;;;17.90;58.10;;;;;;5062983;28;813;-67
2022/12/22 10:12:43;;;;;;;;;;;17.90;58.10;;;;;;5061703;28;1902;-67
2022/12/22 10:15:09;;;;;;;;;;;17.90;58.10;;;;;;5060709;28;896;-68
2022/12/22 10:17:37;;;;;;;;;;;17.90;58.10;;;;;;5060237;28;804;-67
2022/12/22 10:20:05;;;;;;;;;;;18.00;58.10;;;;;;5074004;28;1405;-69
2022/12/22 10:22:32;;;;;;;;;;;17.90;58.10;;;;;;5059279;28;1350;-69
2022/12/22 10:25:01;;;;;;;;;;;17.90;58.00;;;;;;5056867;28;956;-69
2022/12/22 10:27:28;;;;;;;;;;;17.90;58.00;;;;;;5060886;28;804;-69
2022/12/22 10:29:53;;;;;;;;;;;17.90;58.00;;;;;;5060476;28;820;-69
2022/12/22 10:32:20;;;;;;;;;;;17.90;58.10;;;;;;5054781;28;2231;-67
2022/12/22 10:35:00;;;;;;;;;;;18.00;58.10;;;;;;5060111;28;1062;-66
2022/12/22 10:37:43;;;;;;;;;;;17.90;58.00;;;;;;5061539;28;1049;-66
2022/12/22 10:40:15;;;;;;;;;;;18.00;58.10;;;;;;5062681;28;795;-65
2022/12/22 10:42:48;;;;;;;;;;;18.00;58.10;;;;;;5061340;28;1343;-66
2022/12/22 10:45:17;;;;;;;;;;;18.00;58.10;;;;;;5059681;28;1383;-66
2022/12/22 10:47:45;;;;;;;;;;;18.00;58.00;;;;;;5062695;28;808;-66
2022/12/22 10:50:11;;;;;;;;;;;18.00;58.10;;;;;;5062548;28;896;-67
2022/12/22 10:52:36;;;;;;;;;;;18.00;58.00;;;;;;5061996;28;1961;-67
2022/12/22 10:55:18;;;;;;;;;;;18.00;58.00;;;;;;5058312;28;1696;-68
2022/12/22 10:57:44;;;;;;;;;;;18.00;58.00;;;;;;5062129;28;824;-66
2022/12/22 11:00:30;;;;;;;;;;;18.00;58.00;;;;;;5059323;28;1257;-67
2022/12/22 11:02:56;;;;;;;;;;;18.00;58.00;;;;;;5061678;28;1278;-68
2022/12/22 11:05:22;;;;;;;;;;;18.00;58.00;;;;;;5061484;28;1330;-67
2022/12/22 11:07:47;;;;;;;;;;;18.00;58.00;;;;;;5057466;28;864;-67
2022/12/22 11:10:13;;;;;;;;;;;18.00;58.00;;;;;;5043335;28;1251;-67
2022/12/22 11:12:59;;;;;;;;;;;18.00;58.00;;;;;;5061625;28;2001;-67
2022/12/22 11:15:30;;;;;;;;;;;18.00;58.00;;;;;;5062024;28;1335;-66
2022/12/22 11:18:01;;;;;;;;;;;18.00;58.00;;;;;;5061396;28;812;-67
2022/12/22 11:20:26;;;;;;;;;;;18.00;58.00;;;;;;5053818;28;1786;-68
2022/12/22 11:22:56;;;;;;;;;;;18.00;58.00;;;;;;5055609;28;1185;-67
2022/12/22 11:25:21;;;;;;;;;;;18.00;58.00;;;;;;5065275;28;813;-67
2022/12/22 11:27:53;;;;;;;;;;;18.00;58.00;;;;;;5062875;28;1345;-68
2022/12/22 11:30:19;;;;;;;;;;;18.00;58.00;;;;;;5059442;28;892;-68
2022/12/22 11:32:54;;;;;;;;;;;18.00;58.00;;;;;;5059905;28;1909;-67
2022/12/22 11:35:33;;;;;;;;;;;18.00;58.00;;;;;;5058832;28;869;-68
2022/12/22 11:38:17;;;;;;;;;;;18.00;58.00;;;;;;5058480;28;1058;-69
2022/12/22 11:40:47;;;;;;;;;;;18.00;58.50;;;;;;5057321;28;1255;-68
2022/12/22 11:43:32;;;;;;;;;;;18.00;58.00;;;;;;5063861;28;899;-68
2022/12/22 11:46:17;;;;;;;;;;;18.00;58.00;;;;;;5055493;28;1407;-68
2022/12/22 11:48:42;;;;;;;;;;;18.00;58.00;;;;;;5057996;28;837;-68
2022/12/22 11:51:15;;;;;;;;;;;18.00;58.00;;;;;;5064933;28;1346;-69
2022/12/22 11:53:55;;;;;;;;;;;18.00;58.00;;;;;;5061968;28;1906;-67
2022/12/22 11:56:21;;;;;;;;;;;18.00;58.00;;;;;;5069995;28;888;-66
2022/12/22 11:58:55;;;;;;;;;;;18.00;58.00;;;;;;5062680;28;871;-67
2022/12/22 12:01:32;;;;;;;;;;;18.00;58.00;;;;;;5062734;28;1260;-67
2022/12/22 12:04:03;;;;;;;;;;;18.00;58.10;;;;;;5065659;28;1273;-67
2022/12/22 12:06:44;;;;;;;;;;;18.00;58.10;;;;;;5061875;28;801;-67
2022/12/22 12:09:13;;;;;;;;;;;18.00;58.10;;;;;;5061872;28;800;-67
2022/12/22 12:11:46;;;;;;;;;;;18.00;58.10;;;;;;5060281;28;1469;-67
2022/12/22 12:14:20;;;;;;;;;;;18.00;58.10;;;;;;5069800;28;1977;-66
2022/12/22 12:16:48;;;;;;;;;;;18.00;58.10;;;;;;5062901;28;1589;-67
2022/12/22 12:19:32;;;;;;;;;;;18.00;58.10;;;;;;5061088;28;1393;-67
2022/12/22 12:21:59;;;;;;;;;;;18.00;58.10;;;;;;5060379;28;1450;-67
2022/12/22 12:24:24;;;;;;;;;;;18.00;58.10;;;;;;5069396;28;1331;-67
2022/12/22 12:26:56;;;;;;;;;;;18.00;58.10;;;;;;5067427;28;1471;-67
2022/12/22 12:29:22;;;;;;;;;;;18.00;58.10;;;;;;5063323;28;1412;-68
2022/12/22 12:31:49;;;;;;;;;;;18.00;58.10;;;;;;5060475;28;1381;-67
2022/12/22 12:34:15;;;;;;;;;;;18.00;58.10;;;;;;5060718;28;1899;-69
2022/12/22 12:36:53;;;;;;;;;;;18.00;58.70;;;;;;5068227;28;830;-70
2022/12/22 12:39:29;;;;;;;;;;;18.00;58.10;;;;;;5063756;28;835;-70
2022/12/22 12:42:10;;;;;;;;;;;18.00;58.10;;;;;;5062988;28;1268;-70
2022/12/22 12:44:35;;;;;;;;;;;18.00;58.10;;;;;;5062562;28;832;-69
2022/12/22 12:47:01;;;;;;;;;;;18.00;58.10;;;;;;5059394;28;879;-68
2022/12/22 12:49:32;;;;;;;;;;;18.00;58.10;;;;;;5061121;28;933;-72
2022/12/22 12:52:00;;;;;;;;;;;18.00;58.10;;;;;;5058273;28;1358;-69
2022/12/22 12:54:25;;;;;;;;;;;18.00;58.10;;;;;;5061536;28;1967;-68
2022/12/22 12:57:01;;;;;;;;;;;18.00;58.10;;;;;;5059632;28;927;-69
2022/12/22 12:59:47;;;;;;;;;;;18.00;58.10;;;;;;5063596;28;1238;-73
2022/12/22 13:02:31;;;;;;;;;;;18.00;58.20;;;;;;5061777;28;1253;-69
2022/12/22 13:05:12;;;;;;;;;;;18.00;58.10;;;;;;5061784;28;1190;-69
2022/12/22 13:07:56;;;;;;;;;;;18.00;58.10;;;;;;5060893;28;2155;-69
2022/12/22 13:10:24;;;;;;;;;;;18.00;58.10;;;;;;5064154;28;1067;-69
2022/12/22 13:12:50;;;;;;;;;;;18.00;58.20;;;;;;5061988;28;2242;-69
2022/12/22 13:15:26;;;;;;;;;;;18.00;58.20;;;;;;5066423;28;1412;-70
2022/12/22 13:17:52;;;;;;;;;;;18.00;58.20;;;;;;5062201;28;1440;-69
2022/12/22 13:20:22;;;;;;;;;;;18.00;58.20;;;;;;5061144;28;979;-70
2022/12/22 13:22:50;;;;;;;;;;;18.00;58.20;;;;;;5061853;28;1187;-69
2022/12/22 13:25:15;;;;;;;;;;;18.00;58.20;;;;;;5057771;28;925;-69
2022/12/22 13:27:41;;;;;;;;;;;18.00;58.20;;;;;;5059988;28;1400;-71
2022/12/22 13:30:11;;;;;;;;;;;18.00;58.20;;;;;;5060781;28;979;-70
2022/12/22 13:32:36;;;;;;;;;;;18.00;58.20;;;;;;5062963;28;1906;-69
2022/12/22 13:35:06;;;;;;;;;;;18.00;58.20;;;;;;5053814;28;2203;-69
2022/12/22 13:37:37;;;;;;;;;;;18.00;58.20;;;;;;5074111;28;1185;-69
2022/12/22 13:40:15;;;;;;;;;;;18.00;58.20;;;;;;5059277;28;1307;-69
2022/12/22 13:43:00;;;;;;;;;;;18.00;58.20;;;;;;5058814;28;1327;-70
2022/12/22 13:45:32;;;;;;;;;;;18.00;58.20;;;;;;5058180;28;1139;-69
2022/12/22 13:47:59;;;;;;;;;;;18.00;58.20;;;;;;5060253;28;1226;-69
2022/12/22 13:50:30;;;;;;;;;;;18.00;58.20;;;;;;5057471;28;1947;-69
2022/12/22 13:52:55;;;;;;;;;;;18.00;58.20;;;;;;5059507;28;1898;-69
2022/12/22 13:55:24;;;;;;;;;;;17.90;58.20;;;;;;5063370;28;1376;-69
2022/12/22 13:57:51;;;;;;;;;;;17.90;58.20;;;;;;5062515;28;1380;-70
2022/12/22 14:00:17;;;;;;;;;;;17.90;58.20;;;;;;5061193;28;963;-70
2022/12/22 14:02:43;;;;;;;;;;;17.90;58.20;;;;;;5058841;28;1362;-69
2022/12/22 14:05:12;;;;;;;;;;;17.90;58.30;;;;;;5057415;28;1256;-69
2022/12/22 14:07:37;;;;;;;;;;;17.90;58.30;;;;;;5057891;28;884;-69
2022/12/22 14:10:03;;;;;;;;;;;17.90;58.30;;;;;;5057493;28;1139;-68
2022/12/22 14:12:29;;;;;;;;;;;18.00;58.30;;;;;;5057538;28;1946;-69
2022/12/22 14:14:55;;;;;;;;;;;17.90;58.30;;;;;;5057948;28;1635;-69
2022/12/22 14:17:33;;;;;;;;;;;17.90;58.20;;;;;;5059489;28;1010;-69
2022/12/22 14:19:59;;;;;;;;;;;18.00;58.30;;;;;;5060271;28;997;-69
2022/12/22 14:22:25;;;;;;;;;;;18.00;58.30;;;;;;5058170;28;2070;-69
2022/12/22 14:24:54;;;;;;;;;;;18.00;58.30;;;;;;5060849;28;1350;-68
2022/12/22 14:27:39;;;;;;;;;;;18.00;58.30;;;;;;5061149;28;1991;-69
2022/12/22 14:30:08;;;;;;;;;;;18.00;58.30;;;;;;5049835;28;1428;-69
2022/12/22 14:32:35;;;;;;;;;;;18.00;58.30;;;;;;5063436;28;1965;-69
2022/12/22 14:35:01;;;;;;;;;;;18.00;58.90;;;;;;5059495;28;950;-69
2022/12/22 14:37:26;;;;;;;;;;;18.00;58.30;;;;;;5060810;28;2290;-70
2022/12/22 14:39:55;;;;;;;;;;;18.00;58.30;;;;;;5061609;28;2023;-70
2022/12/22 14:42:20;;;;;;;;;;;18.00;58.30;;;;;;5060083;28;2093;-70
2022/12/22 14:44:46;;;;;;;;;;;18.00;58.30;;;;;;5060529;28;1495;-70
2022/12/22 14:47:14;;;;;;;;;;;18.00;58.30;;;;;;5057623;28;2097;-69
2022/12/22 14:49:46;;;;;;;;;;;18.00;58.30;;;;;;5060219;28;2265;-69
2022/12/22 14:52:19;;;;;;;;;;;18.00;58.30;;;;;;5065436;28;1993;-69
2022/12/22 14:54:45;;;;;;;;;;;18.00;58.30;;;;;;5058765;28;1332;-69
2022/12/22 14:57:13;;;;;;;;;;;18.00;58.30;;;;;;5056250;28;887;-69
2022/12/22 14:59:38;;;;;;;;;;;18.00;58.30;;;;;;5060308;28;848;-69
2022/12/22 15:02:30;;;;;;;;;;;18.00;58.30;;;;;;5057808;28;1287;-68
2022/12/22 15:05:05;;;;;;;;;;;18.00;58.30;;;;;;5058733;28;1808;-68
2022/12/22 15:07:41;;;;;;;;;;;18.00;58.30;;;;;;5057379;28;1216;-68
2022/12/22 15:10:07;;;;;;;;;;;18.00;58.30;;;;;;5059168;28;1442;-69
2022/12/22 15:12:32;;;;;;;;;;;18.00;58.20;;;;;;5061815;28;1906;-68
2022/12/22 15:14:58;;;;;;;;;;;18.00;58.30;;;;;;5061065;28;1266;-68
2022/12/22 15:17:24;;;;;;;;;;;18.00;58.30;;;;;;5061137;28;864;-68
2022/12/22 15:19:50;;;;;;;;;;;18.00;58.30;;;;;;5063965;28;995;-67
2022/12/22 15:22:15;;;;;;;;;;;18.00;58.20;;;;;;5059294;28;1312;-66
2022/12/22 15:24:41;;;;;;;;;;;18.00;58.30;;;;;;5062014;28;1471;-67
2022/12/22 15:27:06;;;;;;;;;;;18.00;58.20;;;;;;5065704;28;887;-67
2022/12/22 15:29:32;;;;;;;;;;;18.00;58.20;;;;;;5062636;28;824;-67
2022/12/22 15:31:57;;;;;;;;;;;18.00;58.20;;;;;;5062446;28;1366;-68
2022/12/22 15:34:23;;;;;;;;;;;18.00;58.20;;;;;;5061518;28;1906;-68
2022/12/22 15:36:49;;;;;;;;;;;18.00;58.20;;;;;;5059920;28;828;-68
2022/12/22 15:39:15;;;;;;;;;;;18.00;58.20;;;;;;5059882;28;867;-67
2022/12/22 15:41:41;;;;;;;;;;;18.00;58.20;;;;;;5069194;28;1358;-68
2022/12/22 15:44:07;;;;;;;;;;;18.00;58.20;;;;;;5052917;28;1347;-67
2022/12/22 15:46:32;;;;;;;;;;;18.00;58.20;;;;;;5061771;28;865;-68
2022/12/22 15:48:58;;;;;;;;;;;18.00;58.20;;;;;;5060944;28;935;-68
2022/12/22 15:51:24;;;;;;;;;;;18.00;58.20;;;;;;5061575;28;1300;-68
2022/12/22 15:53:49;;;;;;;;;;;18.00;58.20;;;;;;5062994;28;1956;-69
2022/12/22 15:56:17;;;;;;;;;;;18.00;58.30;;;;;;5063466;28;902;-69
2022/12/22 15:58:42;;;;;;;;;;;18.00;58.20;;;;;;5050764;28;4754;-70
2022/12/22 16:01:09;;;;;;;;;;;18.00;58.20;;;;;;5061922;28;1372;-68
2022/12/22 16:03:34;;;;;;;;;;;18.00;58.30;;;;;;5045199;28;1682;-68
2022/12/22 16:06:00;;;;;;;;;;;18.00;58.30;;;;;;5064877;28;820;-67
2022/12/22 16:08:36;;;;;;;;;;;18.00;58.30;;;;;;5061710;28;832;-68
2022/12/22 16:11:02;;;;;;;;;;;18.00;58.30;;;;;;5062988;28;1324;-67
2022/12/22 16:13:28;;;;;;;;;;;18.00;58.30;;;;;;5057931;28;1910;-67
2022/12/22 16:15:53;;;;;;;;;;;18.00;58.30;;;;;;5058225;28;956;-67
2022/12/22 16:18:18;;;;;;;;;;;18.00;58.30;;;;;;5069684;28;1350;-67
2022/12/22 16:20:44;;;;;;;;;;;18.00;58.20;;;;;;5063818;28;1332;-68
2022/12/22 16:23:13;;;;;;;;;;;18.00;58.30;;;;;;5062384;28;836;-68
2022/12/22 16:25:39;;;;;;;;;;;18.00;58.20;;;;;;5061092;28;926;-69
2022/12/22 16:28:05;;;;;;;;;;;18.00;58.20;;;;;;5062299;28;828;-69
2022/12/22 16:30:31;;;;;;;;;;;18.00;58.20;;;;;;5062446;28;1270;-68
2022/12/22 16:32:56;;;;;;;;;;;18.00;58.20;;;;;;5062367;28;1954;-68
2022/12/22 16:35:23;;;;;;;;;;;18.10;58.20;;;;;;5057662;28;1705;-68
2022/12/22 16:37:48;;;;;;;;;;;18.10;58.20;;;;;;5053714;28;1879;-68
2022/12/22 16:40:14;;;;;;;;;;;18.10;58.20;;;;;;5060599;28;1580;-68
2022/12/22 16:42:47;;;;;;;;;;;18.10;58.20;;;;;;5058720;28;1662;-68
2022/12/22 16:45:14;;;;;;;;;;;18.10;58.70;;;;;;5060789;28;1785;-66
2022/12/22 16:47:39;;;;;;;;;;;18.10;58.20;;;;;;5059431;28;1421;-67
2022/12/22 16:50:08;;;;;;;;;;;18.10;58.10;;;;;;5060079;28;1363;-66
2022/12/22 16:52:35;;;;;;;;;;;18.10;58.20;;;;;;5059748;28;1914;-66
2022/12/22 16:55:01;;;;;;;;;;;18.10;58.20;;;;;;5062112;28;1389;-66
2022/12/22 16:57:26;;;;;;;;;;;18.10;58.10;;;;;;5061338;28;1041;-66
2022/12/22 16:59:52;;;;;;;;;;;18.10;58.20;;;;;;5060467;28;1477;-66
2022/12/22 17:02:22;;;;;;;;;;;18.10;58.20;;;;;;5063228;28;1404;-67
2022/12/22 17:04:47;;;;;;;;;;;18.10;58.10;;;;;;5058927;28;1404;-67
2022/12/22 17:07:12;;;;;;;;;;;18.10;58.10;;;;;;5061486;28;1398;-68
2022/12/22 17:09:42;;;;;;;;;;;18.10;58.20;;;;;;5060804;28;1275;-69
2022/12/22 17:12:09;;;;;;;;;;;18.10;58.20;;;;;;5058997;28;1368;-68
2022/12/22 17:14:37;;;;;;;;;;;18.10;58.20;;;;;;5064947;28;1926;-68
2022/12/22 17:17:03;;;;;;;;;;;18.10;58.20;;;;;;5075579;28;1403;-68
2022/12/22 17:19:28;;;;;;;;;;;18.10;58.20;;;;;;5060599;28;1325;-68
2022/12/22 17:21:54;;;;;;;;;;;18.10;58.20;;;;;;5060571;28;1397;-67
2022/12/22 17:24:20;;;;;;;;;;;18.10;58.20;;;;;;5060715;28;1414;-69
2022/12/22 17:26:45;;;;;;;;;;;18.10;58.20;;;;;;5058500;28;1650;-68
2022/12/22 17:29:18;;;;;;;;;;;18.10;58.20;;;;;;5061894;28;1424;-67
2022/12/22 17:31:43;;;;;;;;;;;18.10;58.20;;;;;;5056659;28;1418;-67
2022/12/22 17:34:13;;;;;;;;;;;18.10;58.20;;;;;;5060770;28;1894;-67
2022/12/22 17:36:38;;;;;;;;;;;18.00;58.20;;;;;;5061636;28;1361;-66
2022/12/22 17:39:04;;;;;;;;;;;18.00;58.20;;;;;;5061085;28;1328;-67
2022/12/22 17:41:30;;;;;;;;;;;18.00;58.30;;;;;;5061431;28;1615;-66
2022/12/22 17:43:55;;;;;;;;;;;18.00;58.30;;;;;;5059188;28;1212;-68
2022/12/22 17:46:21;;;;;;;;;;;18.00;58.30;;;;;;5059833;28;1408;-67
2022/12/22 17:48:46;;;;;;;;;;;18.00;58.30;;;;;;5066622;28;1355;-67
2022/12/22 17:51:32;;;;;;;;;;;18.00;58.40;;;;;;5055105;28;1535;-68
2022/12/22 17:53:57;;;;;;;;;;;18.00;58.30;;;;;;5059648;28;1957;-68
2022/12/22 17:56:23;;;;;;;;;;;18.00;58.40;;;;;;5073502;28;1450;-67
2022/12/22 17:58:49;;;;;;;;;;;18.00;58.40;;;;;;5059165;28;1161;-67
2022/12/22 18:01:18;;;;;;;;;;;18.00;58.40;;;;;;5058810;28;1425;-67
2022/12/22 18:03:44;;;;;;;;;;;18.00;58.40;;;;;;5062492;28;1259;-68
2022/12/22 18:06:09;;;;;;;;;;;18.00;58.40;;;;;;5059809;28;819;-68
2022/12/22 18:08:35;;;;;;;;;;;18.00;58.40;;;;;;5058021;28;908;-68
2022/12/22 18:11:00;;;;;;;;;;;18.00;58.40;;;;;;5057532;28;1286;-68
2022/12/22 18:13:26;;;;;;;;;;;18.00;58.50;;;;;;5058177;28;1910;-67